EBBLEBAW

Guest
Details From EBBL - KLEINE BROGEL
To EBAW - Antwerp Deurne
Flight Number -
Tags None
Created
Modified
Stats Distance 38 nm / 70 km
Max Altitude 3,000 ft / 914 m
Waypoints 3
Social Downloads 0
Likes 0
Share VATSIM

Download

Looking for another format? Having issues loading an existing format? Contact us
Advertisement - Login to hide

Notes

None

Route

EBBL SONDI EBAW

ID Type Via Altitude Latitude Longitude Leg Dist Tot Dist Heading (true) Name
O EBBL APT - 0 ft / 0 m 51.16779˚ 5.47091˚ - 0 nm - KLEINE BROGEL
SONDI FIX - 3,000 ft / 914 m 51.19042˚ 4.83833˚ 23 nm 23 nm 274° / 273° -
O EBAW APT - 0 ft / 0 m 51.19065˚ 4.46378˚ 14 nm 37 nm 270° / 270° Antwerp Deurne

Altitude Profile

Advertisement - Login to hide

EBBL

Details ICAO EBBL
Name KLEINE BROGEL
Region Belgium
Timezone Europe/Brussels (UTC+1.0)
Stats Elevation 200 ft / 61 m (AMSL)
Location 51.167787° 5.470907°
Runways 2
Magnetic Variation 1.413° E

METAR

EBBL 110755Z 07011KT 0800 SN BKN010 M00/M00 Q0981 BLACKAMB YLO TEMPO RED

Decode

TAF

Not found

Departure Runways

ID Width Length Bearing (true) Bearing (mag) Surface Threshold Offset Overrun Length
05L 148 ft / 45 m 10,125 ft / 3,086 m 49.92° 48.51° Asphalt 1,086 ft / 331 m 0 ft / 0 m
05R 75 ft / 23 m 7,863 ft / 2,397 m 50.07° 48.66° Asphalt 0 ft / 0 m 0 ft / 0 m
23L 75 ft / 23 m 7,863 ft / 2,397 m 230.09° 228.68° Asphalt 23 ft / 7 m 0 ft / 0 m
23R 148 ft / 45 m 10,125 ft / 3,086 m 229.94° 228.53° Asphalt 1,129 ft / 344 m 0 ft / 0 m

EBAW

Details ICAO EBAW (ANR)
Name Antwerp Deurne
Region Belgium
Timezone Europe/Brussels (UTC+1.0)
Stats Elevation 39 ft / 12 m (AMSL)
Location 51.190654° 4.463776°
Runways 2
Magnetic Variation 1.097° E

METAR

EBAW 110750Z 08013KT 050V110 1100 R11/1700D R29/1800D SN BR BKN008 M00/M01 Q0980 BECMG BKN005

Decode

TAF

Not found

Destination Runways

ID Width Length Bearing (true) Bearing (mag) Surface Threshold Offset Overrun Length
11 148 ft / 45 m 4,931 ft / 1,503 m 109.83° 108.73° Asphalt 472 ft / 144 m 0 ft / 0 m
11L 164 ft / 50 m 3,317 ft / 1,011 m 109.83° 108.73° Grass 0 ft / 0 m 0 ft / 0 m
29 148 ft / 45 m 4,931 ft / 1,503 m 289.85° 288.75° Asphalt 400 ft / 122 m 0 ft / 0 m
29R 164 ft / 50 m 3,317 ft / 1,011 m 289.85° 288.75° Grass 0 ft / 0 m 0 ft / 0 m

Approach Navaids

Runway Type Ident Frequency Range Bearing (true) Bearing (mag) Slope Elevation
29 Localiser IAD 111.75 MHz 18 nm / 33 km 289.64° 288.54° - 39 ft / 12 m (AMSL)
29 Glidescope IAD 111.75 MHz 10 nm / 19 km 289.84° 288.74° 3.00° 39 ft / 12 m (AMSL)
29 DME IAD 111.75 MHz 18 nm / 33 km - - - 39 ft / 12 m (AMSL)

Popular Alternatives